createdAt,value
2017-09-06T00:01:30.616Z,16.80
2017-09-06T00:03:58.296Z,17.00
2017-09-06T00:06:25.941Z,17.00
2017-09-06T00:08:53.568Z,16.80
2017-09-06T00:11:21.154Z,16.80
2017-09-06T00:13:48.821Z,16.80
2017-09-06T00:16:16.563Z,16.80
2017-09-06T00:18:44.337Z,16.70
2017-09-06T00:21:12.802Z,16.70
2017-09-06T00:23:40.446Z,16.70
2017-09-06T00:26:08.039Z,16.70
2017-09-06T00:28:35.706Z,16.80
2017-09-06T00:31:03.353Z,16.80
2017-09-06T00:33:31.067Z,16.80
2017-09-06T00:35:58.658Z,16.80
2017-09-06T00:38:26.307Z,16.90
2017-09-06T00:40:53.960Z,16.80
2017-09-06T00:43:21.574Z,16.80
2017-09-06T00:45:49.226Z,16.70
2017-09-06T00:48:16.901Z,16.80
2017-09-06T00:50:44.561Z,16.80
2017-09-06T00:53:12.179Z,16.80
2017-09-06T00:55:39.761Z,16.70
2017-09-06T00:58:07.497Z,16.70
2017-09-06T01:00:35.149Z,16.60
2017-09-06T01:03:02.823Z,16.70
2017-09-06T01:05:30.495Z,16.70
2017-09-06T01:07:58.114Z,16.60
2017-09-06T01:10:25.788Z,16.60
2017-09-06T01:12:53.405Z,16.60
2017-09-06T01:15:21.140Z,16.40
2017-09-06T01:17:48.719Z,16.30
2017-09-06T01:20:16.353Z,16.20
2017-09-06T01:22:44.038Z,16.30
2017-09-06T01:25:11.676Z,16.20
2017-09-06T01:27:39.301Z,16.10
2017-09-06T01:30:06.965Z,16.10
2017-09-06T01:32:34.642Z,16.20
2017-09-06T01:35:02.290Z,16.30
2017-09-06T01:37:30.009Z,16.30
2017-09-06T01:39:57.714Z,16.20
2017-09-06T01:42:25.429Z,16.30
2017-09-06T01:44:53.212Z,16.30
2017-09-06T01:47:20.861Z,16.30
2017-09-06T01:49:48.748Z,16.40
2017-09-06T01:52:16.372Z,16.30
2017-09-06T01:54:44.044Z,16.30
2017-09-06T01:57:11.693Z,16.30
2017-09-06T01:59:39.361Z,16.50
2017-09-06T02:02:07.097Z,16.50
2017-09-06T02:04:34.693Z,16.30
2017-09-06T02:07:02.327Z,16.20
2017-09-06T02:09:29.893Z,16.30
2017-09-06T02:11:57.553Z,16.40
2017-09-06T02:14:25.241Z,16.40
2017-09-06T02:16:52.839Z,16.40
2017-09-06T02:19:20.543Z,16.40
2017-09-06T02:21:48.186Z,16.50
2017-09-06T02:24:15.889Z,16.60
2017-09-06T02:26:43.750Z,16.60
2017-09-06T02:29:11.393Z,16.60
2017-09-06T02:31:39.043Z,16.60
2017-09-06T02:34:06.670Z,16.60
2017-09-06T02:36:34.280Z,16.70
2017-09-06T02:39:02.004Z,16.70
2017-09-06T02:41:29.669Z,16.70
2017-09-06T02:43:57.319Z,16.60
2017-09-06T02:46:24.995Z,16.70
2017-09-06T02:48:52.672Z,16.80
2017-09-06T02:51:20.440Z,16.80
2017-09-06T02:53:48.183Z,17.00
2017-09-06T02:56:15.842Z,17.00
2017-09-06T02:58:43.469Z,17.10
2017-09-06T03:01:11.084Z,17.10
2017-09-06T03:03:38.720Z,17.00
2017-09-06T03:06:06.395Z,17.00
2017-09-06T03:08:34.015Z,17.10
2017-09-06T03:11:01.635Z,17.20
2017-09-06T03:13:29.357Z,17.20
2017-09-06T03:15:57.005Z,17.20
2017-09-06T03:18:24.623Z,17.20
2017-09-06T03:20:52.293Z,17.20
2017-09-06T03:23:20.003Z,17.30
2017-09-06T03:25:47.798Z,17.20
2017-09-06T03:28:15.427Z,17.10
2017-09-06T03:30:43.154Z,17.20
2017-09-06T03:33:10.784Z,17.20
2017-09-06T03:35:38.462Z,17.30
2017-09-06T03:38:06.150Z,17.30
2017-09-06T03:40:33.769Z,17.20
2017-09-06T03:43:01.561Z,17.30
2017-09-06T03:45:29.237Z,17.20
2017-09-06T03:47:56.941Z,17.20
2017-09-06T03:50:24.613Z,17.30
2017-09-06T03:52:52.345Z,17.30
2017-09-06T03:55:19.936Z,17.30
2017-09-06T03:57:47.602Z,17.20
2017-09-06T04:00:15.214Z,17.30
2017-09-06T04:02:42.819Z,17.40
2017-09-06T04:05:10.570Z,17.30
2017-09-06T04:07:38.250Z,17.30
2017-09-06T04:10:05.958Z,17.40
2017-09-06T04:12:33.697Z,17.30
2017-09-06T04:15:01.389Z,17.30
2017-09-06T04:17:29.032Z,17.40
2017-09-06T04:19:56.781Z,17.50
2017-09-06T04:22:24.460Z,17.50
2017-09-06T04:24:52.203Z,17.50
2017-09-06T04:27:19.793Z,17.50
2017-09-06T04:29:47.632Z,17.40
2017-09-06T04:32:15.345Z,17.40
2017-09-06T04:34:43.109Z,17.50
2017-09-06T04:37:10.851Z,17.40
2017-09-06T04:39:38.556Z,17.30
2017-09-06T04:42:06.266Z,17.30
2017-09-06T04:44:33.969Z,17.30
2017-09-06T04:47:01.592Z,17.30
2017-09-06T04:49:29.313Z,17.40
2017-09-06T04:51:57.069Z,17.50
2017-09-06T04:54:24.786Z,17.60
2017-09-06T04:56:52.469Z,17.50
2017-09-06T04:59:20.160Z,17.50
2017-09-06T05:01:47.883Z,17.40
2017-09-06T05:04:15.582Z,17.40
2017-09-06T05:06:43.201Z,17.30
2017-09-06T05:09:10.837Z,17.30
2017-09-06T05:11:38.546Z,17.30
2017-09-06T05:14:06.213Z,17.30
2017-09-06T05:16:33.914Z,17.20
2017-09-06T05:19:01.684Z,17.10
2017-09-06T05:21:29.472Z,17.00
2017-09-06T05:23:57.185Z,17.00
2017-09-06T05:26:24.793Z,17.00
2017-09-06T05:28:52.484Z,17.00
2017-09-06T05:31:20.517Z,16.90
2017-09-06T05:33:48.246Z,16.90
2017-09-06T05:36:15.907Z,16.90
2017-09-06T05:38:43.633Z,17.10
2017-09-06T05:41:12.802Z,17.00
2017-09-06T05:43:44.722Z,17.10
2017-09-06T05:46:18.138Z,17.10
2017-09-06T05:48:49.992Z,17.20
2017-09-06T05:51:20.072Z,17.30
2017-09-06T05:53:54.530Z,17.60
2017-09-06T05:56:25.824Z,17.60
2017-09-06T05:58:57.349Z,17.50
2017-09-06T06:01:27.251Z,17.50
2017-09-06T06:03:57.215Z,17.60
2017-09-06T06:06:24.806Z,17.50
2017-09-06T06:08:52.362Z,17.40
2017-09-06T06:11:19.988Z,17.40
2017-09-06T06:13:47.512Z,17.60
2017-09-06T06:16:15.068Z,17.60
2017-09-06T06:18:42.623Z,17.50
2017-09-06T06:21:10.971Z,17.70
2017-09-06T06:23:38.514Z,17.70
2017-09-06T06:26:06.103Z,17.70
2017-09-06T06:28:33.689Z,17.70
2017-09-06T06:31:01.247Z,17.80
2017-09-06T06:33:28.809Z,17.80
2017-09-06T06:35:56.368Z,17.90
2017-09-06T06:38:23.892Z,17.90
2017-09-06T06:40:51.484Z,17.90
2017-09-06T06:43:19.102Z,17.90
2017-09-06T06:45:46.713Z,18.00
2017-09-06T06:48:14.382Z,18.30
2017-09-06T06:50:42.400Z,18.30
2017-09-06T09:07:40.637Z,21.00
2017-09-06T09:13:19.202Z,21.40
2017-09-06T09:15:58.522Z,21.30
2017-09-06T11:27:52.547Z,19.50
2017-09-06T12:00:41.939Z,22.40
2017-09-06T12:06:25.393Z,21.30
2017-09-06T12:09:02.555Z,21.00
2017-09-06T12:14:32.794Z,21.00
2017-09-06T12:19:52.575Z,20.80
2017-09-06T12:22:47.399Z,20.70
2017-09-06T12:25:24.255Z,20.50
2017-09-06T12:44:52.345Z,19.50
2017-09-06T12:47:47.794Z,19.00
2017-09-06T12:53:24.427Z,19.00
2017-09-06T12:58:44.436Z,19.20
2017-09-06T13:07:31.625Z,19.60
2017-09-06T13:14:03.096Z,19.80
2017-09-06T13:16:34.895Z,19.80
2017-09-06T13:22:31.195Z,19.90
2017-09-06T13:25:27.783Z,20.10
2017-09-06T13:28:01.369Z,20.30
2017-09-06T13:36:50.760Z,20.60
2017-09-06T13:39:18.304Z,20.50
2017-09-06T13:41:45.853Z,20.30
2017-09-06T13:44:18.909Z,20.40
2017-09-06T13:46:49.406Z,20.50
2017-09-06T13:49:20.304Z,20.50
2017-09-06T13:54:41.057Z,20.50
2017-09-06T13:57:08.674Z,20.30
2017-09-06T13:59:36.775Z,20.40
2017-09-06T14:04:38.055Z,20.30
2017-09-06T14:07:05.689Z,20.30
2017-09-06T14:09:33.323Z,20.20
2017-09-06T14:12:00.872Z,20.30
2017-09-06T14:14:29.428Z,20.30
2017-09-06T14:16:57.845Z,20.30
2017-09-06T14:19:28.351Z,20.30
2017-09-06T14:21:55.980Z,20.20
2017-09-06T14:24:23.782Z,20.20
2017-09-06T14:26:51.344Z,20.20
2017-09-06T14:29:18.912Z,20.30
2017-09-06T14:31:46.504Z,20.40
2017-09-06T14:34:14.070Z,20.30
2017-09-06T14:36:41.718Z,20.40
2017-09-06T14:39:09.315Z,20.50
2017-09-06T14:41:36.942Z,20.60
2017-09-06T14:44:17.369Z,20.60
2017-09-06T14:46:45.021Z,20.60
2017-09-06T14:49:18.953Z,20.70
2017-09-06T14:51:51.532Z,20.70
2017-09-06T14:54:24.086Z,20.70
2017-09-06T14:56:58.843Z,20.50
2017-09-06T15:02:46.320Z,20.60
2017-09-06T15:05:24.245Z,20.70
2017-09-06T15:08:03.764Z,20.70
2017-09-06T15:10:35.529Z,20.70
2017-09-06T15:13:11.383Z,20.60
2017-09-06T15:15:42.331Z,20.60
2017-09-06T15:18:19.762Z,20.60
2017-09-06T15:20:47.607Z,20.50
2017-09-06T15:23:20.366Z,20.50
2017-09-06T15:25:51.914Z,20.50
2017-09-06T15:29:01.493Z,20.50
2017-09-06T15:34:18.334Z,20.50
2017-09-06T15:39:31.254Z,20.50
2017-09-06T15:42:01.789Z,20.50
2017-09-06T15:44:29.361Z,20.40
2017-09-06T15:46:57.003Z,20.50
2017-09-06T15:49:24.556Z,20.50
2017-09-06T15:55:32.256Z,20.60
2017-09-06T15:57:59.997Z,20.60
2017-09-06T16:00:30.929Z,20.40
2017-09-06T16:02:59.952Z,20.50
2017-09-06T16:05:27.481Z,20.30
2017-09-06T16:07:55.472Z,20.30
2017-09-06T16:10:23.123Z,20.40
2017-09-06T16:12:51.568Z,20.40
2017-09-06T16:15:19.662Z,20.30
2017-09-06T16:17:47.279Z,20.50
2017-09-06T16:20:14.857Z,20.30
2017-09-06T16:22:42.421Z,20.30
2017-09-06T16:25:09.976Z,20.40
2017-09-06T16:27:37.504Z,20.30
2017-09-06T16:30:05.075Z,20.50
2017-09-06T16:32:32.634Z,20.50
2017-09-06T16:35:00.178Z,20.50
2017-09-06T16:37:27.743Z,20.40
2017-09-06T16:39:55.266Z,20.50
2017-09-06T16:42:22.788Z,20.30
2017-09-06T16:44:50.341Z,20.20
2017-09-06T16:47:17.888Z,20.00
2017-09-06T16:49:45.419Z,19.90
2017-09-06T16:52:12.940Z,19.90
2017-09-06T16:54:40.482Z,19.90
2017-09-06T16:57:08.004Z,19.80
2017-09-06T16:59:35.562Z,19.70
2017-09-06T17:02:03.080Z,19.60
2017-09-06T17:04:30.707Z,19.60
2017-09-06T17:06:58.257Z,19.40
2017-09-06T17:12:17.352Z,19.20
2017-09-06T17:14:44.867Z,19.20
2017-09-06T17:17:12.395Z,19.10
2017-09-06T17:19:39.961Z,19.10
2017-09-06T17:22:07.493Z,19.10
2017-09-06T17:24:35.039Z,19.20
2017-09-06T17:27:02.664Z,19.10
2017-09-06T17:29:30.220Z,19.00
2017-09-06T17:31:57.784Z,18.90
2017-09-06T17:34:25.373Z,18.80
2017-09-06T17:36:52.920Z,18.50
2017-09-06T17:39:20.530Z,18.60
2017-09-06T17:41:48.278Z,18.50
2017-09-06T17:44:15.992Z,18.60
2017-09-06T17:46:43.666Z,18.80
2017-09-06T17:49:11.243Z,18.80
2017-09-06T17:51:39.542Z,18.70
2017-09-06T17:54:07.133Z,18.50
2017-09-06T17:56:34.735Z,18.40
2017-09-06T17:59:02.279Z,18.30
2017-09-06T18:01:29.803Z,18.20
2017-09-06T18:03:57.324Z,18.00
2017-09-06T18:06:24.892Z,18.00
2017-09-06T18:08:52.420Z,18.00
2017-09-06T18:11:19.928Z,17.80
2017-09-06T18:13:47.505Z,17.70
2017-09-06T18:16:15.056Z,17.70
2017-09-06T18:18:42.591Z,17.70
2017-09-06T18:21:10.165Z,17.60
2017-09-06T18:23:37.780Z,17.50
2017-09-06T18:26:05.296Z,17.50
2017-09-06T18:28:32.857Z,17.50
2017-09-06T18:31:00.379Z,17.50
2017-09-06T18:33:27.969Z,17.50
2017-09-06T18:35:55.515Z,17.50
2017-09-06T18:38:23.075Z,17.40
2017-09-06T18:40:50.627Z,17.30
2017-09-06T18:43:18.215Z,17.30
2017-09-06T18:45:45.851Z,17.20
2017-09-06T18:48:13.427Z,17.20
2017-09-06T18:50:40.990Z,17.20
2017-09-06T18:53:08.517Z,17.20
2017-09-06T18:55:36.056Z,17.20
2017-09-06T18:58:03.577Z,17.20
2017-09-06T19:00:31.156Z,17.20
2017-09-06T19:02:58.701Z,17.10
2017-09-06T19:05:26.236Z,17.10
2017-09-06T19:07:53.786Z,17.10
2017-09-06T19:10:21.396Z,17.10
2017-09-06T19:12:49.029Z,17.10
2017-09-06T19:15:16.602Z,17.10
2017-09-06T19:17:44.133Z,17.00
2017-09-06T19:20:11.733Z,16.90
2017-09-06T19:22:39.268Z,16.90
2017-09-06T19:25:06.786Z,16.70
2017-09-06T19:27:36.160Z,16.70
2017-09-06T19:30:03.748Z,16.60
2017-09-06T19:32:32.244Z,16.60
2017-09-06T19:34:59.793Z,16.60
2017-09-06T19:37:27.372Z,16.60
2017-09-06T19:39:54.908Z,16.50
2017-09-06T19:42:23.681Z,16.50
2017-09-06T19:44:51.375Z,16.40
2017-09-06T19:47:19.016Z,16.30
2017-09-06T19:49:46.641Z,16.30
2017-09-06T19:52:14.198Z,16.40
2017-09-06T19:54:41.777Z,16.30
2017-09-06T19:57:09.485Z,16.00
2017-09-06T19:59:37.112Z,16.00
2017-09-06T20:02:04.699Z,15.80
2017-09-06T20:04:32.411Z,15.80
2017-09-06T20:07:00.052Z,16.00
2017-09-06T20:09:27.684Z,15.80
2017-09-06T20:11:55.396Z,15.50
2017-09-06T20:14:23.127Z,15.60
2017-09-06T20:16:50.679Z,15.70
2017-09-06T20:19:18.295Z,15.70
2017-09-06T20:21:45.894Z,15.60
2017-09-06T20:24:13.584Z,15.60
2017-09-06T20:26:41.279Z,15.80
2017-09-06T20:29:08.949Z,15.60
2017-09-06T20:31:37.493Z,15.50
2017-09-06T20:34:05.073Z,15.30
2017-09-06T20:36:32.690Z,15.20
2017-09-06T20:39:00.376Z,15.40
2017-09-06T20:41:27.972Z,15.50
2017-09-06T20:43:55.513Z,15.40
2017-09-06T20:46:23.099Z,15.30
2017-09-06T20:48:50.640Z,15.10
2017-09-06T20:51:18.204Z,15.20
2017-09-06T20:53:45.806Z,15.10
2017-09-06T20:56:13.378Z,15.20
2017-09-06T20:58:40.919Z,15.10
2017-09-06T21:01:08.496Z,15.10
2017-09-06T21:03:36.054Z,15.10
2017-09-06T21:06:03.609Z,15.10
2017-09-06T21:08:31.213Z,15.10
2017-09-06T21:10:58.741Z,15.10
2017-09-06T21:13:26.270Z,15.20
2017-09-06T21:15:53.911Z,15.30
2017-09-06T21:18:21.543Z,15.20
2017-09-06T21:20:49.116Z,15.20
2017-09-06T21:23:16.712Z,15.20
2017-09-06T21:25:44.240Z,15.30
2017-09-06T21:28:11.785Z,15.30
2017-09-06T21:30:39.344Z,15.20
2017-09-06T21:33:06.930Z,15.20
2017-09-06T21:35:34.454Z,15.20
2017-09-06T21:38:02.015Z,15.20
2017-09-06T21:40:30.922Z,15.00
2017-09-06T21:42:58.512Z,15.20
2017-09-06T21:45:26.040Z,15.10
2017-09-06T21:47:53.579Z,14.80
2017-09-06T21:50:21.179Z,14.90
2017-09-06T21:52:48.714Z,14.90
2017-09-06T21:55:16.263Z,14.80
2017-09-06T21:57:43.849Z,14.60
2017-09-06T22:00:11.399Z,14.70
2017-09-06T22:02:38.955Z,14.80
2017-09-06T22:05:06.485Z,14.80
2017-09-06T22:07:34.028Z,14.70
2017-09-06T22:10:01.591Z,14.80
2017-09-06T22:12:29.124Z,14.90
2017-09-06T22:14:56.654Z,14.80
2017-09-06T22:17:24.449Z,14.70
2017-09-06T22:19:52.061Z,14.60
2017-09-06T22:22:19.661Z,14.50
2017-09-06T22:24:47.234Z,14.60
2017-09-06T22:27:15.687Z,14.60
2017-09-06T22:29:43.217Z,14.70
2017-09-06T22:32:10.777Z,14.60
2017-09-06T22:34:38.301Z,14.70
2017-09-06T22:37:05.845Z,14.80
2017-09-06T22:39:33.390Z,14.70
2017-09-06T22:42:00.952Z,14.70
2017-09-06T22:44:28.571Z,14.50
2017-09-06T22:46:56.108Z,14.50
2017-09-06T22:49:23.685Z,14.70
2017-09-06T22:51:51.261Z,14.70
2017-09-06T22:54:18.844Z,14.80
2017-09-06T22:56:46.431Z,14.80
2017-09-06T22:59:14.021Z,14.60
2017-09-06T23:01:41.591Z,14.40
2017-09-06T23:04:09.172Z,14.40
2017-09-06T23:06:36.736Z,14.50
2017-09-06T23:09:04.312Z,14.40
2017-09-06T23:11:31.829Z,14.20
2017-09-06T23:13:59.386Z,14.10
2017-09-06T23:16:26.922Z,14.10
2017-09-06T23:18:54.463Z,14.00
2017-09-06T23:21:22.008Z,14.10
2017-09-06T23:23:49.601Z,14.20
2017-09-06T23:26:17.112Z,14.30
2017-09-06T23:28:44.676Z,14.60
2017-09-06T23:31:12.220Z,14.70
2017-09-06T23:33:39.787Z,14.60
2017-09-06T23:36:07.404Z,14.60
2017-09-06T23:38:34.921Z,14.60
2017-09-06T23:41:02.465Z,14.40
2017-09-06T23:43:30.024Z,14.40
2017-09-06T23:45:57.592Z,14.20
2017-09-06T23:48:25.354Z,14.20
2017-09-06T23:50:52.904Z,14.40
2017-09-06T23:53:20.504Z,14.50
2017-09-06T23:55:48.039Z,14.20
2017-09-06T23:58:15.589Z,14.10
